createdAt,value
2022-10-22T00:01:09.147Z,57.79
2022-10-22T00:03:39.873Z,62.55
2022-10-22T00:06:08.047Z,65.99
2022-10-22T00:08:36.267Z,61.73
2022-10-22T00:11:17.610Z,57.86
2022-10-22T00:16:19.509Z,58.06
2022-10-22T00:18:47.471Z,63.01
2022-10-22T00:21:15.349Z,67.71
2022-10-22T00:23:44.254Z,64.46
2022-10-22T00:26:12.618Z,56.54
2022-10-22T00:28:40.603Z,55.25
2022-10-22T00:31:14.244Z,56.47
2022-10-22T00:33:42.298Z,58.03
2022-10-22T00:36:10.105Z,64.07
2022-10-22T00:38:37.829Z,64.85
2022-10-22T00:41:06.497Z,63.53
2022-10-22T00:43:34.935Z,61.98
2022-10-22T00:46:02.643Z,58.09
2022-10-22T00:48:33.762Z,56.64
2022-10-22T00:51:06.168Z,58.59
2022-10-22T00:53:46.251Z,63.20
2022-10-22T00:56:14.395Z,64.86
2022-10-22T00:58:48.062Z,63.13
2022-10-22T01:01:28.844Z,61.72
2022-10-22T01:03:57.415Z,60.87
2022-10-22T01:06:31.029Z,62.45
2022-10-22T01:09:31.947Z,55.92
2022-10-22T01:12:57.654Z,54.95
2022-10-22T01:15:41.844Z,56.56
2022-10-22T01:18:24.498Z,64.69
2022-10-22T01:21:10.006Z,65.11
2022-10-22T01:24:12.213Z,57.36
2022-10-22T01:27:22.914Z,55.23
2022-10-22T01:30:02.459Z,56.46
2022-10-22T01:32:39.646Z,64.03
2022-10-22T01:35:12.682Z,65.90
2022-10-22T01:37:51.193Z,62.52
2022-10-22T01:40:21.173Z,57.17
2022-10-22T01:43:06.775Z,55.89
2022-10-22T01:45:48.578Z,57.28
2022-10-22T01:48:34.478Z,63.60
2022-10-22T01:51:38.475Z,65.17
2022-10-22T01:54:21.362Z,61.88
2022-10-22T01:57:14.865Z,60.40
2022-10-22T02:00:03.906Z,57.48
2022-10-22T02:05:38.714Z,61.67
2022-10-22T02:08:20.290Z,63.44
2022-10-22T02:10:51.594Z,63.52
2022-10-22T02:13:36.620Z,63.70
2022-10-22T02:16:09.186Z,64.12
2022-10-22T02:18:43.133Z,63.72
2022-10-22T02:21:11.184Z,63.46
2022-10-22T02:23:39.613Z,63.32
2022-10-22T02:26:33.906Z,63.13
2022-10-22T02:29:26.368Z,63.01
2022-10-22T02:31:58.357Z,63.52
2022-10-22T02:34:32.192Z,63.90
2022-10-22T02:37:03.726Z,64.07
2022-10-22T02:39:33.686Z,63.25
2022-10-22T02:42:03.069Z,62.40
2022-10-22T02:44:30.812Z,62.03
2022-10-22T02:46:59.794Z,62.07
2022-10-22T02:49:27.773Z,61.26
2022-10-22T02:51:55.602Z,61.06
2022-10-22T02:54:23.408Z,61.01
2022-10-22T02:56:51.132Z,60.81
2022-10-22T02:59:18.905Z,60.65
2022-10-22T03:01:46.679Z,60.21
2022-10-22T03:04:14.361Z,57.56
2022-10-22T03:06:44.281Z,56.71
2022-10-22T03:09:12.047Z,58.26
2022-10-22T03:11:39.746Z,62.62
2022-10-22T03:14:07.492Z,64.91
2022-10-22T03:16:35.222Z,63.50
2022-10-22T03:19:02.938Z,61.35
2022-10-22T03:21:51.314Z,60.52
2022-10-22T03:24:26.282Z,57.76
2022-10-22T03:26:54.665Z,57.82
2022-10-22T03:29:25.514Z,59.22
2022-10-22T03:31:55.522Z,63.20
2022-10-22T03:34:23.412Z,65.44
2022-10-22T03:36:52.602Z,63.56
2022-10-22T03:39:22.115Z,62.51
2022-10-22T03:41:52.341Z,61.57
2022-10-22T03:44:22.718Z,60.79
2022-10-22T03:46:50.663Z,60.24
2022-10-22T03:49:18.353Z,57.90
2022-10-22T03:51:46.141Z,57.23
2022-10-22T03:54:16.588Z,59.18
2022-10-22T03:56:44.563Z,63.39
2022-10-22T03:59:19.180Z,65.85
2022-10-22T04:01:46.970Z,65.30
2022-10-22T04:04:14.831Z,64.72
2022-10-22T04:06:42.556Z,64.27
2022-10-22T04:09:10.404Z,63.89
2022-10-22T04:11:38.324Z,63.84
2022-10-22T04:14:06.211Z,63.53
2022-10-22T04:16:33.965Z,63.20
2022-10-22T04:19:01.796Z,63.35
2022-10-22T04:21:29.509Z,62.38
2022-10-22T04:23:57.381Z,61.10
2022-10-22T04:26:25.750Z,60.25
2022-10-22T04:28:54.085Z,60.45
2022-10-22T04:31:25.159Z,60.80
2022-10-22T04:33:59.487Z,58.15
2022-10-22T04:36:29.343Z,56.58
2022-10-22T04:39:01.340Z,58.61
2022-10-22T04:41:33.080Z,63.47
2022-10-22T04:44:02.154Z,67.30
2022-10-22T04:46:33.777Z,65.63
2022-10-22T04:49:04.143Z,63.04
2022-10-22T04:51:33.205Z,57.52
2022-10-22T04:54:01.005Z,57.64
2022-10-22T04:56:31.538Z,60.40
2022-10-22T04:59:06.087Z,65.03
2022-10-22T05:01:43.104Z,67.00
2022-10-22T05:04:15.588Z,66.21
2022-10-22T05:06:44.831Z,65.45
2022-10-22T05:09:19.884Z,65.83
2022-10-22T05:11:51.338Z,63.38
2022-10-22T05:14:25.412Z,60.85
2022-10-22T05:16:54.022Z,58.23
2022-10-22T05:19:26.898Z,58.33
2022-10-22T05:21:59.569Z,59.36
2022-10-22T05:24:29.979Z,64.37
2022-10-22T05:26:59.971Z,67.33
2022-10-22T05:29:28.333Z,66.70
2022-10-22T05:31:56.279Z,63.54
2022-10-22T05:34:24.041Z,60.65
2022-10-22T05:36:51.789Z,57.68
2022-10-22T05:39:19.709Z,57.33
2022-10-22T05:41:47.482Z,58.67
2022-10-22T05:44:15.323Z,62.71
2022-10-22T05:46:43.651Z,66.57
2022-10-22T05:49:15.582Z,66.63
2022-10-22T05:51:43.355Z,63.45
2022-10-22T05:54:22.524Z,61.76
2022-10-22T05:56:50.268Z,58.59
2022-10-22T05:59:18.477Z,57.57
2022-10-22T06:01:46.273Z,59.80
2022-10-22T06:04:14.250Z,66.31
2022-10-22T06:06:51.507Z,68.71
2022-10-22T06:09:31.722Z,63.65
2022-10-22T06:12:00.169Z,61.67
2022-10-22T06:14:29.250Z,61.51
2022-10-22T06:17:00.426Z,61.08
2022-10-22T06:19:29.950Z,57.99
2022-10-22T06:21:57.700Z,55.88
2022-10-22T06:24:25.493Z,57.11
2022-10-22T06:26:53.472Z,59.27
2022-10-22T06:29:22.054Z,64.81
2022-10-22T06:31:49.918Z,67.02
2022-10-22T06:34:21.259Z,64.92
2022-10-22T06:36:49.049Z,63.10
2022-10-22T06:39:18.436Z,61.75
2022-10-22T06:41:47.154Z,58.43
2022-10-22T06:44:17.625Z,57.56
2022-10-22T06:46:45.724Z,59.03
2022-10-22T06:49:15.851Z,63.93
2022-10-22T06:51:43.757Z,65.57
2022-10-22T06:54:13.730Z,63.86
2022-10-22T06:56:41.850Z,62.15
2022-10-22T06:59:10.092Z,61.09
2022-10-22T07:01:38.290Z,60.82
2022-10-22T07:04:09.146Z,60.37
2022-10-22T07:06:37.939Z,58.40
2022-10-22T07:09:06.027Z,57.26
2022-10-22T07:11:46.348Z,58.77
2022-10-22T07:14:15.429Z,62.78
2022-10-22T07:16:43.359Z,65.00
2022-10-22T07:19:12.433Z,65.20
2022-10-22T07:21:40.346Z,64.70
2022-10-22T07:24:08.654Z,64.34
2022-10-22T07:26:37.096Z,63.37
2022-10-22T07:29:05.873Z,62.79
2022-10-22T07:31:34.020Z,62.03
2022-10-22T07:34:01.950Z,61.41
2022-10-22T07:36:29.893Z,60.80
2022-10-22T07:38:59.750Z,60.33
2022-10-22T07:41:30.032Z,60.27
2022-10-22T07:43:58.421Z,58.37
2022-10-22T07:46:27.100Z,57.52
2022-10-22T07:48:55.501Z,59.20
2022-10-22T07:51:23.571Z,63.07
2022-10-22T07:53:51.313Z,65.69
2022-10-22T07:56:19.055Z,65.10
2022-10-22T07:58:46.751Z,63.88
2022-10-22T08:01:14.801Z,62.92
2022-10-22T08:03:42.628Z,61.41
2022-10-22T08:06:14.937Z,60.60
2022-10-22T08:08:43.744Z,58.32
2022-10-22T08:11:11.985Z,57.17
2022-10-22T08:13:44.837Z,58.31
2022-10-22T08:16:14.477Z,61.91
2022-10-22T08:18:42.766Z,63.85
2022-10-22T08:21:13.022Z,63.52
2022-10-22T08:23:41.073Z,64.06
2022-10-22T08:26:10.529Z,63.80
2022-10-22T08:28:38.292Z,62.59
2022-10-22T08:31:08.545Z,61.18
2022-10-22T08:33:38.999Z,60.54
2022-10-22T08:36:07.795Z,58.67
2022-10-22T08:38:35.747Z,57.60
2022-10-22T08:41:12.406Z,59.41
2022-10-22T08:44:26.417Z,63.53
2022-10-22T08:47:51.499Z,65.25
2022-10-22T08:50:47.157Z,64.23
2022-10-22T08:53:23.167Z,63.10
2022-10-22T08:55:54.149Z,62.47
2022-10-22T08:58:57.300Z,62.00
2022-10-22T09:01:38.695Z,62.21
2022-10-22T09:04:28.189Z,61.66
2022-10-22T09:06:59.881Z,61.25
2022-10-22T09:09:36.101Z,61.11
2022-10-22T09:12:06.119Z,60.77
2022-10-22T09:14:34.075Z,60.34
2022-10-22T09:17:14.283Z,60.47
2022-10-22T09:20:13.829Z,60.23
2022-10-22T09:23:20.836Z,59.87
2022-10-22T09:25:51.510Z,59.99
2022-10-22T09:28:19.837Z,60.03
2022-10-22T09:30:47.728Z,59.94
2022-10-22T09:33:28.677Z,59.89
2022-10-22T09:36:03.709Z,60.11
2022-10-22T09:38:39.561Z,59.83
2022-10-22T09:41:09.485Z,59.76
2022-10-22T09:43:37.326Z,59.96
2022-10-22T09:46:14.734Z,59.81
2022-10-22T09:48:54.021Z,60.08
2022-10-22T09:51:37.887Z,60.24
2022-10-22T09:54:38.729Z,60.43
2022-10-22T09:57:22.357Z,60.92
2022-10-22T09:59:54.245Z,61.16
2022-10-22T10:02:40.279Z,61.44
2022-10-22T10:05:19.693Z,61.65
2022-10-22T10:07:50.358Z,61.90
2022-10-22T10:10:33.338Z,61.95
2022-10-22T10:13:39.050Z,61.93
2022-10-22T10:16:26.136Z,61.95
2022-10-22T10:19:17.608Z,62.33
2022-10-22T10:22:41.998Z,61.49
2022-10-22T10:25:32.226Z,61.27
2022-10-22T10:28:28.615Z,61.85
2022-10-22T10:31:17.153Z,61.11
2022-10-22T10:34:04.889Z,60.63
2022-10-22T10:37:01.602Z,60.41
2022-10-22T10:40:08.004Z,58.41
2022-10-22T10:42:55.742Z,59.80
2022-10-22T10:45:42.960Z,63.81
2022-10-22T10:48:24.087Z,64.49
2022-10-22T10:51:06.553Z,63.50
2022-10-22T10:54:22.237Z,62.80
2022-10-22T10:57:27.062Z,61.94
2022-10-22T11:00:11.967Z,57.78
2022-10-22T11:02:58.053Z,59.30
2022-10-22T11:05:45.885Z,64.18
2022-10-22T11:08:25.661Z,63.81
2022-10-22T11:11:06.650Z,60.04
2022-10-22T11:13:56.547Z,57.94
2022-10-22T11:16:40.766Z,59.43
2022-10-22T11:19:49.676Z,63.40
2022-10-22T11:22:31.924Z,64.00
2022-10-22T11:25:14.319Z,63.00
2022-10-22T11:28:11.363Z,62.09
2022-10-22T11:30:44.885Z,62.25
2022-10-22T11:33:22.113Z,62.16
2022-10-22T11:35:51.471Z,62.42
2022-10-22T11:38:25.943Z,62.70
2022-10-22T11:41:06.006Z,62.55
2022-10-22T11:44:08.686Z,62.49
2022-10-22T11:46:47.491Z,62.41
2022-10-22T11:49:19.472Z,62.18
2022-10-22T11:51:48.104Z,62.25
2022-10-22T11:54:34.072Z,62.77
2022-10-22T11:57:16.869Z,62.71
2022-10-22T11:59:47.608Z,62.95
2022-10-22T12:02:41.255Z,63.71
2022-10-22T12:05:24.701Z,63.73
2022-10-22T12:08:21.783Z,63.84
2022-10-22T12:11:03.985Z,63.57
2022-10-22T12:13:59.293Z,63.66
2022-10-22T12:16:55.112Z,63.38
2022-10-22T12:19:35.034Z,63.59
2022-10-22T12:22:29.812Z,63.43
2022-10-22T12:25:04.908Z,63.32
2022-10-22T12:27:38.848Z,63.39
2022-10-22T12:30:24.193Z,63.19
2022-10-22T12:33:02.571Z,63.23
2022-10-22T12:35:35.885Z,63.07
2022-10-22T12:38:20.499Z,63.48
2022-10-22T12:40:51.281Z,63.88
2022-10-22T12:43:30.926Z,64.74
2022-10-22T12:46:00.112Z,64.12
2022-10-22T12:48:35.780Z,64.30
2022-10-22T12:51:10.187Z,64.88
2022-10-22T12:53:44.797Z,65.67
2022-10-22T12:56:30.362Z,65.14
2022-10-22T12:59:05.106Z,64.29
2022-10-22T13:01:39.185Z,65.11
2022-10-22T13:04:12.755Z,65.15
2022-10-22T13:06:46.990Z,64.61
2022-10-22T13:09:25.165Z,64.50
2022-10-22T13:12:04.955Z,64.58
2022-10-22T13:14:36.146Z,64.76
2022-10-22T13:17:12.314Z,65.00
2022-10-22T13:19:54.041Z,65.16
2022-10-22T13:22:54.686Z,65.23
2022-10-22T13:25:32.371Z,65.40
2022-10-22T13:28:22.051Z,65.50
2022-10-22T13:31:11.793Z,65.30
2022-10-22T13:33:43.925Z,65.23
2022-10-22T13:36:16.368Z,66.05
2022-10-22T13:38:45.256Z,65.28
2022-10-22T13:41:31.073Z,65.17
2022-10-22T13:43:59.686Z,64.77
2022-10-22T13:46:27.670Z,64.50
2022-10-22T13:48:59.053Z,64.65
2022-10-22T13:51:37.696Z,63.73
2022-10-22T13:54:19.913Z,62.63
2022-10-22T13:56:47.711Z,62.15
2022-10-22T13:59:17.342Z,61.19
2022-10-22T14:01:47.783Z,61.65
2022-10-22T14:04:15.741Z,61.66
2022-10-22T14:06:44.028Z,61.74
2022-10-22T14:09:15.997Z,61.61
2022-10-22T14:11:44.972Z,61.31
2022-10-22T14:14:14.478Z,61.70
2022-10-22T14:16:42.271Z,62.45
2022-10-22T14:19:18.014Z,63.06
2022-10-22T14:21:45.821Z,63.90
2022-10-22T14:24:13.726Z,63.40
2022-10-22T14:26:41.865Z,63.06
2022-10-22T14:29:10.628Z,63.35
2022-10-22T14:31:43.211Z,63.49
2022-10-22T14:34:15.652Z,63.69
2022-10-22T14:36:44.250Z,63.87
2022-10-22T14:39:13.732Z,63.93
2022-10-22T14:41:42.685Z,64.31
2022-10-22T14:44:14.583Z,64.42
2022-10-22T14:46:44.676Z,64.45
2022-10-22T14:49:13.037Z,64.44
2022-10-22T14:51:42.208Z,64.24
2022-10-22T14:54:09.953Z,64.41
2022-10-22T14:56:38.144Z,64.38
2022-10-22T14:59:09.323Z,64.06
2022-10-22T15:07:18.262Z,63.71
2022-10-22T15:14:14.790Z,64.77
2022-10-22T15:20:15.649Z,63.82
2022-10-22T15:22:43.673Z,63.36
2022-10-22T15:25:14.265Z,62.76
2022-10-22T15:27:42.066Z,62.08
2022-10-22T15:30:10.205Z,61.94
2022-10-22T15:32:38.104Z,62.17
2022-10-22T15:35:08.292Z,62.77
2022-10-22T15:37:37.994Z,63.53
2022-10-22T15:40:08.738Z,63.67
2022-10-22T15:42:36.586Z,63.16
2022-10-22T15:45:04.810Z,64.10
2022-10-22T15:47:32.565Z,64.30
2022-10-22T15:50:00.642Z,64.39
2022-10-22T15:52:28.669Z,64.78
2022-10-22T15:54:56.433Z,64.66
2022-10-22T15:57:24.188Z,64.34
2022-10-22T15:59:52.365Z,64.87
2022-10-22T16:02:20.284Z,65.43
2022-10-22T16:04:48.241Z,65.57
2022-10-22T16:07:17.317Z,65.75
2022-10-22T16:09:46.674Z,65.70
2022-10-22T16:12:17.174Z,66.62
2022-10-22T16:14:45.504Z,66.73
2022-10-22T16:17:13.281Z,66.08
2022-10-22T16:19:41.400Z,65.74
2022-10-22T16:22:11.621Z,65.57
2022-10-22T16:24:41.102Z,65.46
2022-10-22T16:27:10.303Z,65.34
2022-10-22T16:29:39.820Z,65.43
2022-10-22T16:32:08.301Z,65.59
2022-10-22T16:34:35.996Z,65.66
2022-10-22T16:37:10.410Z,65.58
2022-10-22T16:39:44.962Z,65.66
2022-10-22T16:42:12.760Z,66.00
2022-10-22T16:44:40.680Z,65.90
2022-10-22T16:47:08.509Z,66.06
2022-10-22T16:49:36.313Z,66.23
2022-10-22T16:52:04.390Z,66.40
2022-10-22T16:54:35.067Z,66.56
2022-10-22T16:57:04.026Z,66.59
2022-10-22T16:59:32.047Z,66.62
2022-10-22T17:01:59.927Z,66.60
2022-10-22T17:04:28.090Z,66.38
2022-10-22T17:06:55.827Z,66.21
2022-10-22T17:09:24.443Z,66.26
2022-10-22T17:11:52.824Z,66.17
2022-10-22T17:14:21.356Z,66.16
2022-10-22T17:16:53.722Z,66.09
2022-10-22T17:19:23.813Z,65.93
2022-10-22T17:21:53.654Z,65.96
2022-10-22T17:24:21.460Z,65.88
2022-10-22T17:26:49.167Z,66.78
2022-10-22T17:29:17.041Z,67.17
2022-10-22T17:31:45.282Z,67.78
2022-10-22T17:34:17.217Z,68.32
2022-10-22T17:36:45.068Z,68.39
2022-10-22T17:39:18.828Z,68.85
2022-10-22T17:41:46.567Z,69.50
2022-10-22T17:44:16.036Z,69.68
2022-10-22T17:46:45.395Z,66.60
2022-10-22T17:49:18.868Z,66.76
2022-10-22T17:51:47.555Z,67.14
2022-10-22T17:54:15.383Z,67.72
2022-10-22T17:56:43.620Z,68.42
2022-10-22T17:59:15.995Z,68.97
2022-10-22T18:01:46.049Z,69.51
2022-10-22T18:04:18.548Z,69.95
2022-10-22T18:06:47.599Z,70.39
2022-10-22T18:09:19.267Z,70.95
2022-10-22T18:11:53.270Z,71.49
2022-10-22T18:14:23.056Z,71.61
2022-10-22T18:16:51.703Z,71.46
2022-10-22T18:19:23.386Z,71.53
2022-10-22T18:21:51.080Z,71.64
2022-10-22T18:24:19.175Z,71.91
2022-10-22T18:26:46.986Z,71.96
2022-10-22T18:29:18.642Z,72.14
2022-10-22T18:31:48.070Z,72.18
2022-10-22T18:34:19.121Z,72.23
2022-10-22T18:36:49.487Z,72.60
2022-10-22T18:39:17.780Z,72.70
2022-10-22T18:41:45.643Z,72.73
2022-10-22T18:44:15.608Z,72.85
2022-10-22T18:46:43.683Z,73.29
2022-10-22T18:49:19.037Z,73.05
2022-10-22T18:51:52.777Z,72.54
2022-10-22T18:54:24.420Z,71.84
2022-10-22T18:57:00.621Z,71.41
2022-10-22T18:59:31.285Z,70.90
2022-10-22T19:01:59.870Z,70.64
2022-10-22T19:04:37.262Z,70.50
2022-10-22T19:07:06.294Z,70.48
2022-10-22T19:09:34.212Z,70.60
2022-10-22T19:12:02.380Z,70.37
2022-10-22T19:14:30.473Z,70.05
2022-10-22T19:16:58.245Z,69.55
2022-10-22T19:19:26.539Z,69.11
2022-10-22T19:21:56.770Z,68.71
2022-10-22T19:24:26.154Z,68.42
2022-10-22T19:26:53.946Z,68.28
2022-10-22T19:29:22.197Z,68.28
2022-10-22T19:31:51.281Z,68.21
2022-10-22T19:34:20.962Z,68.06
2022-10-22T19:36:51.897Z,67.93
2022-10-22T19:39:20.422Z,67.84
2022-10-22T19:41:48.520Z,67.91
2022-10-22T19:44:16.617Z,67.76
2022-10-22T19:46:44.946Z,67.45
2022-10-22T19:49:17.609Z,67.36
2022-10-22T19:51:48.658Z,67.28
2022-10-22T19:54:19.529Z,67.18
2022-10-22T19:56:49.185Z,67.03
2022-10-22T19:59:18.089Z,66.89
2022-10-22T20:01:45.887Z,66.61
2022-10-22T20:04:17.376Z,66.67
2022-10-22T20:06:46.194Z,66.68
2022-10-22T20:09:14.173Z,66.71
2022-10-22T20:11:42.000Z,66.70
2022-10-22T20:14:09.877Z,66.59
2022-10-22T20:16:38.474Z,66.64
2022-10-22T20:19:08.787Z,66.44
2022-10-22T20:21:37.518Z,66.25
2022-10-22T20:24:05.412Z,65.97
2022-10-22T20:26:33.213Z,65.41
2022-10-22T20:29:00.940Z,65.03
2022-10-22T20:31:29.761Z,64.77
2022-10-22T20:34:01.408Z,64.46
2022-10-22T20:36:31.623Z,64.42
2022-10-22T20:39:08.873Z,64.31
2022-10-22T20:41:40.595Z,64.29
2022-10-22T20:44:16.430Z,64.04
2022-10-22T20:46:44.928Z,63.88
2022-10-22T20:49:16.467Z,63.84
2022-10-22T20:51:45.009Z,63.85
2022-10-22T20:54:14.842Z,63.69
2022-10-22T20:56:43.617Z,63.78
2022-10-22T20:59:13.186Z,63.68
2022-10-22T21:01:54.200Z,63.63
2022-10-22T21:04:22.319Z,63.80
2022-10-22T21:06:52.315Z,63.47
2022-10-22T21:09:21.209Z,63.39
2022-10-22T21:11:49.200Z,63.36
2022-10-22T21:14:20.211Z,63.23
2022-10-22T21:16:51.253Z,63.23
2022-10-22T21:19:20.359Z,63.32
2022-10-22T21:21:49.088Z,63.25
2022-10-22T21:24:16.923Z,63.23
2022-10-22T21:26:44.854Z,63.24
2022-10-22T21:29:13.659Z,63.36
2022-10-22T21:31:41.501Z,63.63
2022-10-22T21:34:09.500Z,63.63
2022-10-22T21:36:37.332Z,63.63
2022-10-22T21:39:07.192Z,63.61
2022-10-22T21:41:37.659Z,63.86
2022-10-22T21:44:05.588Z,63.88
2022-10-22T21:46:33.858Z,64.00
2022-10-22T21:49:04.384Z,64.18
2022-10-22T21:51:35.942Z,64.21
2022-10-22T21:54:04.742Z,64.42
2022-10-22T21:56:35.336Z,64.67
2022-10-22T21:59:05.585Z,64.90
2022-10-22T22:01:34.126Z,65.13
2022-10-22T22:04:03.313Z,65.56
2022-10-22T22:06:33.419Z,65.81
2022-10-22T22:09:03.919Z,65.87
2022-10-22T22:11:32.132Z,65.60
2022-10-22T22:13:59.981Z,65.42
2022-10-22T22:16:33.321Z,65.53
2022-10-22T22:19:06.457Z,65.34
2022-10-22T22:21:36.542Z,65.22
2022-10-22T22:24:05.786Z,65.10
2022-10-22T22:26:34.637Z,64.96
2022-10-22T22:29:02.544Z,65.24
2022-10-22T22:31:34.281Z,65.17
2022-10-22T22:34:12.877Z,65.07
2022-10-22T22:36:45.930Z,64.97
2022-10-22T22:39:23.909Z,64.94
2022-10-22T22:41:52.306Z,64.97
2022-10-22T22:44:20.695Z,64.94
2022-10-22T22:46:48.429Z,64.73
2022-10-22T22:49:16.231Z,64.63
2022-10-22T22:51:44.415Z,64.80
2022-10-22T22:54:12.515Z,64.58
2022-10-22T22:56:41.114Z,64.43
2022-10-22T22:59:10.579Z,64.30
2022-10-22T23:01:39.597Z,64.22
2022-10-22T23:04:16.504Z,64.09
2022-10-22T23:06:44.321Z,64.22
2022-10-22T23:09:15.631Z,64.06
2022-10-22T23:11:46.114Z,63.91
2022-10-22T23:14:17.646Z,63.79
2022-10-22T23:16:49.758Z,63.64
2022-10-22T23:19:22.071Z,63.38
2022-10-22T23:21:55.615Z,63.53
2022-10-22T23:24:27.665Z,63.59
2022-10-22T23:26:59.809Z,63.69
2022-10-22T23:29:38.435Z,63.60
2022-10-22T23:32:11.932Z,63.31
2022-10-22T23:34:40.171Z,63.40
2022-10-22T23:37:09.706Z,63.77
2022-10-22T23:39:37.527Z,63.87
2022-10-22T23:42:05.392Z,64.05
2022-10-22T23:44:33.183Z,64.19
2022-10-22T23:47:01.042Z,64.34
2022-10-22T23:49:28.803Z,64.28
2022-10-22T23:51:56.454Z,63.95
2022-10-22T23:54:24.272Z,63.94
2022-10-22T23:56:51.984Z,64.09
2022-10-22T23:59:19.794Z,64.39
